sensor_id;sensor_type;location;lat;lon;timestamp;temperature;humidity
33007;DHT22;19361;51.598;7.650;2024-03-17T00:00:17;10.30;58.70
33007;DHT22;19361;51.598;7.650;2024-03-17T00:05:18;10.30;58.50
33007;DHT22;19361;51.598;7.650;2024-03-17T00:10:19;10.30;58.40
33007;DHT22;19361;51.598;7.650;2024-03-17T00:15:20;10.20;58.40
33007;DHT22;19361;51.598;7.650;2024-03-17T00:20:20;10.10;58.40
33007;DHT22;19361;51.598;7.650;2024-03-17T00:25:21;10.10;58.50
33007;DHT22;19361;51.598;7.650;2024-03-17T00:30:22;10.00;58.70
33007;DHT22;19361;51.598;7.650;2024-03-17T00:35:23;10.00;58.80
33007;DHT22;19361;51.598;7.650;2024-03-17T00:40:24;9.90;59.00
33007;DHT22;19361;51.598;7.650;2024-03-17T00:45:24;9.80;59.00
33007;DHT22;19361;51.598;7.650;2024-03-17T00:50:25;9.80;59.30
33007;DHT22;19361;51.598;7.650;2024-03-17T00:55:26;9.70;59.40
33007;DHT22;19361;51.598;7.650;2024-03-17T01:00:26;9.70;59.60
33007;DHT22;19361;51.598;7.650;2024-03-17T01:05:27;9.60;59.60
33007;DHT22;19361;51.598;7.650;2024-03-17T01:10:27;9.50;59.70
33007;DHT22;19361;51.598;7.650;2024-03-17T01:15:30;9.50;59.60
33007;DHT22;19361;51.598;7.650;2024-03-17T01:20:32;9.40;59.90
33007;DHT22;19361;51.598;7.650;2024-03-17T01:25:34;9.40;60.00
33007;DHT22;19361;51.598;7.650;2024-03-17T01:30:38;9.30;59.90
33007;DHT22;19361;51.598;7.650;2024-03-17T01:35:40;9.20;60.00
33007;DHT22;19361;51.598;7.650;2024-03-17T01:40:40;9.20;60.00
33007;DHT22;19361;51.598;7.650;2024-03-17T01:45:41;9.10;59.90
33007;DHT22;19361;51.598;7.650;2024-03-17T01:50:44;9.10;60.00
33007;DHT22;19361;51.598;7.650;2024-03-17T01:55:47;9.00;60.30
33007;DHT22;19361;51.598;7.650;2024-03-17T02:00:47;9.00;60.30
33007;DHT22;19361;51.598;7.650;2024-03-17T02:05:48;8.90;60.20
33007;DHT22;19361;51.598;7.650;2024-03-17T02:10:55;8.80;60.30
33007;DHT22;19361;51.598;7.650;2024-03-17T02:15:56;8.80;60.40
33007;DHT22;19361;51.598;7.650;2024-03-17T02:20:57;8.70;60.30
33007;DHT22;19361;51.598;7.650;2024-03-17T02:25:59;8.70;60.40
33007;DHT22;19361;51.598;7.650;2024-03-17T02:31:00;8.60;60.50
33007;DHT22;19361;51.598;7.650;2024-03-17T02:36:01;8.50;60.60
33007;DHT22;19361;51.598;7.650;2024-03-17T02:41:04;8.50;60.70
33007;DHT22;19361;51.598;7.650;2024-03-17T02:46:04;8.40;60.80
33007;DHT22;19361;51.598;7.650;2024-03-17T02:51:05;8.30;60.80
33007;DHT22;19361;51.598;7.650;2024-03-17T02:56:06;8.30;60.90
33007;DHT22;19361;51.598;7.650;2024-03-17T03:01:07;8.20;60.80
33007;DHT22;19361;51.598;7.650;2024-03-17T03:06:09;8.20;61.00
33007;DHT22;19361;51.598;7.650;2024-03-17T03:11:12;8.10;61.00
33007;DHT22;19361;51.598;7.650;2024-03-17T03:16:14;8.10;61.10
33007;DHT22;19361;51.598;7.650;2024-03-17T03:21:15;8.10;61.40
33007;DHT22;19361;51.598;7.650;2024-03-17T03:26:15;8.00;61.20
33007;DHT22;19361;51.598;7.650;2024-03-17T03:31:16;8.00;61.30
33007;DHT22;19361;51.598;7.650;2024-03-17T03:36:18;8.00;61.50
33007;DHT22;19361;51.598;7.650;2024-03-17T03:41:18;7.90;61.40
33007;DHT22;19361;51.598;7.650;2024-03-17T03:46:19;7.90;61.50
33007;DHT22;19361;51.598;7.650;2024-03-17T03:51:21;7.90;61.50
33007;DHT22;19361;51.598;7.650;2024-03-17T03:56:21;7.90;61.60
33007;DHT22;19361;51.598;7.650;2024-03-17T04:01:22;7.80;61.70
33007;DHT22;19361;51.598;7.650;2024-03-17T04:06:23;7.80;61.80
33007;DHT22;19361;51.598;7.650;2024-03-17T04:11:23;7.80;61.90
33007;DHT22;19361;51.598;7.650;2024-03-17T04:16:24;7.80;62.00
33007;DHT22;19361;51.598;7.650;2024-03-17T04:21:26;7.80;62.10
33007;DHT22;19361;51.598;7.650;2024-03-17T04:26:26;7.70;62.10
33007;DHT22;19361;51.598;7.650;2024-03-17T04:31:27;7.70;62.00
33007;DHT22;19361;51.598;7.650;2024-03-17T04:36:28;7.70;62.00
33007;DHT22;19361;51.598;7.650;2024-03-17T04:41:28;7.60;62.10
33007;DHT22;19361;51.598;7.650;2024-03-17T04:46:29;7.60;62.10
33007;DHT22;19361;51.598;7.650;2024-03-17T04:51:30;7.50;62.10
33007;DHT22;19361;51.598;7.650;2024-03-17T04:56:33;7.50;62.20
33007;DHT22;19361;51.598;7.650;2024-03-17T05:01:34;7.40;62.30
33007;DHT22;19361;51.598;7.650;2024-03-17T05:06:36;7.40;62.40
33007;DHT22;19361;51.598;7.650;2024-03-17T05:11:37;7.40;62.50
33007;DHT22;19361;51.598;7.650;2024-03-17T05:16:38;7.30;62.50
33007;DHT22;19361;51.598;7.650;2024-03-17T05:21:39;7.30;62.50
33007;DHT22;19361;51.598;7.650;2024-03-17T05:26:40;7.30;62.60
33007;DHT22;19361;51.598;7.650;2024-03-17T05:31:42;7.30;62.70
33007;DHT22;19361;51.598;7.650;2024-03-17T05:36:44;7.30;62.70
33007;DHT22;19361;51.598;7.650;2024-03-17T05:41:44;7.20;62.80
33007;DHT22;19361;51.598;7.650;2024-03-17T05:46:49;7.20;62.80
33007;DHT22;19361;51.598;7.650;2024-03-17T05:51:52;7.20;62.90
33007;DHT22;19361;51.598;7.650;2024-03-17T05:56:52;7.20;62.90
33007;DHT22;19361;51.598;7.650;2024-03-17T06:01:53;7.20;62.90
33007;DHT22;19361;51.598;7.650;2024-03-17T06:06:54;7.20;63.00
33007;DHT22;19361;51.598;7.650;2024-03-17T06:11:55;7.20;63.00
33007;DHT22;19361;51.598;7.650;2024-03-17T06:16:55;7.30;63.10
33007;DHT22;19361;51.598;7.650;2024-03-17T06:21:56;7.20;63.10
33007;DHT22;19361;51.598;7.650;2024-03-17T06:26:58;7.30;63.30
33007;DHT22;19361;51.598;7.650;2024-03-17T06:31:58;7.30;63.30
33007;DHT22;19361;51.598;7.650;2024-03-17T06:37:00;7.40;63.50
33007;DHT22;19361;51.598;7.650;2024-03-17T06:42:00;7.50;63.70
33007;DHT22;19361;51.598;7.650;2024-03-17T06:47:01;7.60;63.70
33007;DHT22;19361;51.598;7.650;2024-03-17T06:52:02;7.80;63.70
33007;DHT22;19361;51.598;7.650;2024-03-17T06:57:03;8.00;63.70
33007;DHT22;19361;51.598;7.650;2024-03-17T07:02:05;8.20;63.90
33007;DHT22;19361;51.598;7.650;2024-03-17T07:07:05;8.40;64.00
33007;DHT22;19361;51.598;7.650;2024-03-17T07:12:10;8.60;63.60
33007;DHT22;19361;51.598;7.650;2024-03-17T07:17:11;8.70;63.20
33007;DHT22;19361;51.598;7.650;2024-03-17T07:22:11;8.90;63.10
33007;DHT22;19361;51.598;7.650;2024-03-17T07:27:12;9.00;63.30
33007;DHT22;19361;51.598;7.650;2024-03-17T07:32:14;9.20;63.50
33007;DHT22;19361;51.598;7.650;2024-03-17T07:37:15;9.40;62.90
33007;DHT22;19361;51.598;7.650;2024-03-17T07:42:16;9.60;62.80
33007;DHT22;19361;51.598;7.650;2024-03-17T07:47:17;9.80;62.60
33007;DHT22;19361;51.598;7.650;2024-03-17T07:52:18;10.00;62.30
33007;DHT22;19361;51.598;7.650;2024-03-17T07:57:18;10.10;63.10
33007;DHT22;19361;51.598;7.650;2024-03-17T08:02:19;10.40;62.70
33007;DHT22;19361;51.598;7.650;2024-03-17T08:07:20;10.60;62.50
33007;DHT22;19361;51.598;7.650;2024-03-17T08:12:21;10.90;61.50
33007;DHT22;19361;51.598;7.650;2024-03-17T08:17:22;11.10;61.00
33007;DHT22;19361;51.598;7.650;2024-03-17T08:22:22;11.30;61.30
33007;DHT22;19361;51.598;7.650;2024-03-17T08:27:23;11.40;61.00
33007;DHT22;19361;51.598;7.650;2024-03-17T08:32:24;11.60;60.30
33007;DHT22;19361;51.598;7.650;2024-03-17T08:37:24;11.80;59.80
33007;DHT22;19361;51.598;7.650;2024-03-17T08:42:26;11.90;59.60
33007;DHT22;19361;51.598;7.650;2024-03-17T08:47:26;12.00;59.00
33007;DHT22;19361;51.598;7.650;2024-03-17T08:52:27;12.10;58.60
33007;DHT22;19361;51.598;7.650;2024-03-17T08:57:27;12.20;58.60
33007;DHT22;19361;51.598;7.650;2024-03-17T09:02:28;12.30;57.90
33007;DHT22;19361;51.598;7.650;2024-03-17T09:07:29;12.40;57.60
33007;DHT22;19361;51.598;7.650;2024-03-17T09:12:29;12.50;57.80
33007;DHT22;19361;51.598;7.650;2024-03-17T09:17:30;12.50;57.30
33007;DHT22;19361;51.598;7.650;2024-03-17T09:22:31;12.60;58.00
33007;DHT22;19361;51.598;7.650;2024-03-17T09:27:32;12.70;56.30
33007;DHT22;19361;51.598;7.650;2024-03-17T09:32:34;12.80;56.00
33007;DHT22;19361;51.598;7.650;2024-03-17T09:37:35;13.00;56.70
33007;DHT22;19361;51.598;7.650;2024-03-17T09:42:35;13.20;56.70
33007;DHT22;19361;51.598;7.650;2024-03-17T09:47:36;13.40;56.00
33007;DHT22;19361;51.598;7.650;2024-03-17T09:52:37;13.50;55.80
33007;DHT22;19361;51.598;7.650;2024-03-17T09:57:40;13.50;54.90
33007;DHT22;19361;51.598;7.650;2024-03-17T10:02:47;13.60;53.80
33007;DHT22;19361;51.598;7.650;2024-03-17T10:07:48;13.60;54.40
33007;DHT22;19361;51.598;7.650;2024-03-17T10:12:51;13.70;53.30
33007;DHT22;19361;51.598;7.650;2024-03-17T10:17:52;13.90;54.70
33007;DHT22;19361;51.598;7.650;2024-03-17T10:23:02;14.00;54.40
33007;DHT22;19361;51.598;7.650;2024-03-17T10:28:13;14.20;54.00
33007;DHT22;19361;51.598;7.650;2024-03-17T10:33:22;14.40;52.80
33007;DHT22;19361;51.598;7.650;2024-03-17T10:38:25;14.60;52.90
33007;DHT22;19361;51.598;7.650;2024-03-17T10:43:27;14.70;53.10
33007;DHT22;19361;51.598;7.650;2024-03-17T10:48:31;14.70;53.30
33007;DHT22;19361;51.598;7.650;2024-03-17T10:53:35;14.80;52.50
33007;DHT22;19361;51.598;7.650;2024-03-17T10:58:38;14.90;52.90
33007;DHT22;19361;51.598;7.650;2024-03-17T11:03:49;14.90;52.50
33007;DHT22;19361;51.598;7.650;2024-03-17T11:08:51;14.90;53.20
33007;DHT22;19361;51.598;7.650;2024-03-17T11:14:18;15.00;53.10
33007;DHT22;19361;51.598;7.650;2024-03-17T11:19:20;15.00;52.40
33007;DHT22;19361;51.598;7.650;2024-03-17T11:24:21;15.10;53.40
33007;DHT22;19361;51.598;7.650;2024-03-17T11:29:29;15.20;52.20
33007;DHT22;19361;51.598;7.650;2024-03-17T11:34:37;15.30;50.90
33007;DHT22;19361;51.598;7.650;2024-03-17T11:40:23;15.30;51.20
33007;DHT22;19361;51.598;7.650;2024-03-17T11:45:25;15.40;51.50
33007;DHT22;19361;51.598;7.650;2024-03-17T11:50:25;15.40;51.70
33007;DHT22;19361;51.598;7.650;2024-03-17T11:55:28;15.50;51.60
33007;DHT22;19361;51.598;7.650;2024-03-17T12:00:28;15.60;51.50
33007;DHT22;19361;51.598;7.650;2024-03-17T12:05:29;15.70;50.50
33007;DHT22;19361;51.598;7.650;2024-03-17T12:10:32;15.80;50.40
33007;DHT22;19361;51.598;7.650;2024-03-17T12:15:33;15.80;50.80
33007;DHT22;19361;51.598;7.650;2024-03-17T12:20:34;15.90;49.90
33007;DHT22;19361;51.598;7.650;2024-03-17T12:25:34;16.00;49.50
33007;DHT22;19361;51.598;7.650;2024-03-17T12:30:35;16.20;50.20
33007;DHT22;19361;51.598;7.650;2024-03-17T12:35:36;16.30;49.30
33007;DHT22;19361;51.598;7.650;2024-03-17T12:40:36;16.50;49.30
33007;DHT22;19361;51.598;7.650;2024-03-17T12:45:37;16.60;48.80
33007;DHT22;19361;51.598;7.650;2024-03-17T12:50:45;16.70;48.20
33007;DHT22;19361;51.598;7.650;2024-03-17T12:55:52;16.80;48.00
33007;DHT22;19361;51.598;7.650;2024-03-17T13:01:13;16.90;49.70
33007;DHT22;19361;51.598;7.650;2024-03-17T13:06:23;16.90;47.30
33007;DHT22;19361;51.598;7.650;2024-03-17T13:11:26;17.00;47.20
33007;DHT22;19361;51.598;7.650;2024-03-17T13:16:29;17.00;47.10
33007;DHT22;19361;51.598;7.650;2024-03-17T13:21:30;17.00;45.60
33007;DHT22;19361;51.598;7.650;2024-03-17T13:26:30;16.90;46.10
33007;DHT22;19361;51.598;7.650;2024-03-17T13:31:31;17.00;45.60
33007;DHT22;19361;51.598;7.650;2024-03-17T13:36:32;16.90;45.90
33007;DHT22;19361;51.598;7.650;2024-03-17T13:41:33;17.00;46.70
33007;DHT22;19361;51.598;7.650;2024-03-17T13:46:34;17.00;46.90
33007;DHT22;19361;51.598;7.650;2024-03-17T13:51:35;17.00;46.30
33007;DHT22;19361;51.598;7.650;2024-03-17T13:56:35;17.00;46.60
33007;DHT22;19361;51.598;7.650;2024-03-17T14:01:36;17.00;45.10
33007;DHT22;19361;51.598;7.650;2024-03-17T14:06:37;17.00;45.20
33007;DHT22;19361;51.598;7.650;2024-03-17T14:11:38;17.00;45.60
33007;DHT22;19361;51.598;7.650;2024-03-17T14:16:39;16.90;45.60
33007;DHT22;19361;51.598;7.650;2024-03-17T14:21:41;16.90;45.60
33007;DHT22;19361;51.598;7.650;2024-03-17T14:26:41;16.90;45.70
33007;DHT22;19361;51.598;7.650;2024-03-17T14:31:42;16.90;45.80
33007;DHT22;19361;51.598;7.650;2024-03-17T14:36:44;16.90;46.10
33007;DHT22;19361;51.598;7.650;2024-03-17T14:41:45;16.90;46.30
33007;DHT22;19361;51.598;7.650;2024-03-17T14:46:45;16.90;46.20
33007;DHT22;19361;51.598;7.650;2024-03-17T14:51:46;16.90;46.60
33007;DHT22;19361;51.598;7.650;2024-03-17T14:56:48;16.80;46.40
33007;DHT22;19361;51.598;7.650;2024-03-17T15:01:49;16.80;46.90
33007;DHT22;19361;51.598;7.650;2024-03-17T15:06:49;16.70;47.20
33007;DHT22;19361;51.598;7.650;2024-03-17T15:11:50;16.60;47.50
33007;DHT22;19361;51.598;7.650;2024-03-17T15:16:51;16.50;47.70
33007;DHT22;19361;51.598;7.650;2024-03-17T15:21:52;16.50;48.20
33007;DHT22;19361;51.598;7.650;2024-03-17T15:26:53;16.40;48.30
33007;DHT22;19361;51.598;7.650;2024-03-17T15:31:54;16.40;48.30
33007;DHT22;19361;51.598;7.650;2024-03-17T15:36:54;16.30;48.50
33007;DHT22;19361;51.598;7.650;2024-03-17T15:41:55;16.20;48.70
33007;DHT22;19361;51.598;7.650;2024-03-17T15:46:56;16.20;48.80
33007;DHT22;19361;51.598;7.650;2024-03-17T15:51:56;16.10;49.10
33007;DHT22;19361;51.598;7.650;2024-03-17T15:56:57;16.10;49.20
33007;DHT22;19361;51.598;7.650;2024-03-17T16:01:58;16.00;49.10
33007;DHT22;19361;51.598;7.650;2024-03-17T16:06:59;16.00;49.20
33007;DHT22;19361;51.598;7.650;2024-03-17T16:11:59;16.00;49.40
33007;DHT22;19361;51.598;7.650;2024-03-17T16:17:00;15.90;49.40
33007;DHT22;19361;51.598;7.650;2024-03-17T16:22:04;15.90;49.70
33007;DHT22;19361;51.598;7.650;2024-03-17T16:27:05;15.80;49.60
33007;DHT22;19361;51.598;7.650;2024-03-17T16:32:06;15.80;49.90
33007;DHT22;19361;51.598;7.650;2024-03-17T16:37:08;15.80;50.00
33007;DHT22;19361;51.598;7.650;2024-03-17T16:42:08;15.80;50.00
33007;DHT22;19361;51.598;7.650;2024-03-17T16:47:29;15.70;50.10
33007;DHT22;19361;51.598;7.650;2024-03-17T16:52:32;15.70;50.50
33007;DHT22;19361;51.598;7.650;2024-03-17T16:57:33;15.60;50.60
33007;DHT22;19361;51.598;7.650;2024-03-17T17:02:37;15.50;50.70
33007;DHT22;19361;51.598;7.650;2024-03-17T17:07:42;15.50;50.90
33007;DHT22;19361;51.598;7.650;2024-03-17T17:12:43;15.50;51.30
33007;DHT22;19361;51.598;7.650;2024-03-17T17:17:45;15.50;51.30
33007;DHT22;19361;51.598;7.650;2024-03-17T17:22:48;15.50;51.30
33007;DHT22;19361;51.598;7.650;2024-03-17T17:27:48;15.50;51.40
33007;DHT22;19361;51.598;7.650;2024-03-17T17:32:49;15.40;51.50
33007;DHT22;19361;51.598;7.650;2024-03-17T17:37:50;15.40;51.70
33007;DHT22;19361;51.598;7.650;2024-03-17T17:42:51;15.30;51.70
33007;DHT22;19361;51.598;7.650;2024-03-17T17:47:52;15.20;51.80
33007;DHT22;19361;51.598;7.650;2024-03-17T17:52:53;15.10;51.80
33007;DHT22;19361;51.598;7.650;2024-03-17T17:57:55;15.00;52.00
33007;DHT22;19361;51.598;7.650;2024-03-17T18:02:58;14.90;52.20
33007;DHT22;19361;51.598;7.650;2024-03-17T18:07:58;14.90;52.40
33007;DHT22;19361;51.598;7.650;2024-03-17T18:12:59;14.80;52.60
33007;DHT22;19361;51.598;7.650;2024-03-17T18:18:00;14.70;52.80
33007;DHT22;19361;51.598;7.650;2024-03-17T18:23:01;14.70;52.90
33007;DHT22;19361;51.598;7.650;2024-03-17T18:28:02;14.60;53.00
33007;DHT22;19361;51.598;7.650;2024-03-17T18:33:03;14.60;53.10
33007;DHT22;19361;51.598;7.650;2024-03-17T18:38:04;14.50;53.20
33007;DHT22;19361;51.598;7.650;2024-03-17T18:43:06;14.50;53.30
33007;DHT22;19361;51.598;7.650;2024-03-17T18:48:08;14.50;53.50
33007;DHT22;19361;51.598;7.650;2024-03-17T18:53:09;14.40;53.60
33007;DHT22;19361;51.598;7.650;2024-03-17T18:58:10;14.40;53.70
33007;DHT22;19361;51.598;7.650;2024-03-17T19:03:11;14.30;54.00
33007;DHT22;19361;51.598;7.650;2024-03-17T19:08:12;14.30;54.10
33007;DHT22;19361;51.598;7.650;2024-03-17T19:13:12;14.20;54.10
33007;DHT22;19361;51.598;7.650;2024-03-17T19:18:13;14.10;54.20
33007;DHT22;19361;51.598;7.650;2024-03-17T19:23:15;14.10;54.40
33007;DHT22;19361;51.598;7.650;2024-03-17T19:28:16;14.10;54.40
33007;DHT22;19361;51.598;7.650;2024-03-17T19:33:16;14.10;54.50
33007;DHT22;19361;51.598;7.650;2024-03-17T19:38:17;14.00;54.60
33007;DHT22;19361;51.598;7.650;2024-03-17T19:43:18;14.00;54.70
33007;DHT22;19361;51.598;7.650;2024-03-17T19:48:19;14.00;54.80
33007;DHT22;19361;51.598;7.650;2024-03-17T19:53:21;13.90;54.80
33007;DHT22;19361;51.598;7.650;2024-03-17T19:58:21;13.90;54.80
33007;DHT22;19361;51.598;7.650;2024-03-17T20:03:23;13.90;54.90
33007;DHT22;19361;51.598;7.650;2024-03-17T20:08:23;13.80;54.90
33007;DHT22;19361;51.598;7.650;2024-03-17T20:13:27;13.80;54.90
33007;DHT22;19361;51.598;7.650;2024-03-17T20:18:28;13.80;55.00
33007;DHT22;19361;51.598;7.650;2024-03-17T20:23:30;13.70;55.10
33007;DHT22;19361;51.598;7.650;2024-03-17T20:28:31;13.60;55.20
33007;DHT22;19361;51.598;7.650;2024-03-17T20:33:32;13.60;55.30
33007;DHT22;19361;51.598;7.650;2024-03-17T20:38:32;13.50;55.40
33007;DHT22;19361;51.598;7.650;2024-03-17T20:43:33;13.50;55.60
33007;DHT22;19361;51.598;7.650;2024-03-17T20:48:36;13.40;55.70
33007;DHT22;19361;51.598;7.650;2024-03-17T20:53:36;13.40;55.80
33007;DHT22;19361;51.598;7.650;2024-03-17T20:58:40;13.40;55.80
33007;DHT22;19361;51.598;7.650;2024-03-17T21:03:40;13.40;56.50
33007;DHT22;19361;51.598;7.650;2024-03-17T21:08:45;13.40;55.90
33007;DHT22;19361;51.598;7.650;2024-03-17T21:13:45;13.40;55.80
33007;DHT22;19361;51.598;7.650;2024-03-17T21:18:49;13.40;55.90
33007;DHT22;19361;51.598;7.650;2024-03-17T21:23:49;13.40;56.10
33007;DHT22;19361;51.598;7.650;2024-03-17T21:28:50;13.40;55.90
33007;DHT22;19361;51.598;7.650;2024-03-17T21:33:51;13.40;55.90
33007;DHT22;19361;51.598;7.650;2024-03-17T21:38:52;13.40;55.90
33007;DHT22;19361;51.598;7.650;2024-03-17T21:43:53;13.30;55.80
33007;DHT22;19361;51.598;7.650;2024-03-17T21:48:53;13.30;55.80
33007;DHT22;19361;51.598;7.650;2024-03-17T21:53:54;13.40;55.90
33007;DHT22;19361;51.598;7.650;2024-03-17T21:58:55;13.40;56.00
33007;DHT22;19361;51.598;7.650;2024-03-17T22:03:55;13.40;56.00
33007;DHT22;19361;51.598;7.650;2024-03-17T22:08:56;13.40;56.00
33007;DHT22;19361;51.598;7.650;2024-03-17T22:13:57;13.40;56.00
33007;DHT22;19361;51.598;7.650;2024-03-17T22:18:58;13.30;55.90
33007;DHT22;19361;51.598;7.650;2024-03-17T22:23:58;13.30;56.00
33007;DHT22;19361;51.598;7.650;2024-03-17T22:28:59;13.30;56.00
33007;DHT22;19361;51.598;7.650;2024-03-17T22:34:00;13.40;56.30
33007;DHT22;19361;51.598;7.650;2024-03-17T22:39:03;13.30;56.20
33007;DHT22;19361;51.598;7.650;2024-03-17T22:44:04;13.30;56.30
33007;DHT22;19361;51.598;7.650;2024-03-17T22:49:04;13.30;56.30
33007;DHT22;19361;51.598;7.650;2024-03-17T22:54:05;13.30;56.40
33007;DHT22;19361;51.598;7.650;2024-03-17T22:59:06;13.30;56.40
33007;DHT22;19361;51.598;7.650;2024-03-17T23:04:06;13.30;56.40
33007;DHT22;19361;51.598;7.650;2024-03-17T23:09:07;13.20;56.40
33007;DHT22;19361;51.598;7.650;2024-03-17T23:14:08;13.30;56.40
33007;DHT22;19361;51.598;7.650;2024-03-17T23:19:08;13.20;56.40
33007;DHT22;19361;51.598;7.650;2024-03-17T23:24:09;13.20;56.30
33007;DHT22;19361;51.598;7.650;2024-03-17T23:29:10;13.20;56.50
33007;DHT22;19361;51.598;7.650;2024-03-17T23:34:11;13.20;56.50
33007;DHT22;19361;51.598;7.650;2024-03-17T23:39:12;13.10;56.40
33007;DHT22;19361;51.598;7.650;2024-03-17T23:44:12;13.10;56.50
33007;DHT22;19361;51.598;7.650;2024-03-17T23:49:13;13.10;56.60
33007;DHT22;19361;51.598;7.650;2024-03-17T23:54:14;13.10;56.90
33007;DHT22;19361;51.598;7.650;2024-03-17T23:59:14;13.10;57.20
